createdAt,value
2022-09-20T00:01:17.587Z,99.90
2022-09-20T00:03:46.766Z,99.90
2022-09-20T00:06:16.226Z,99.90
2022-09-20T00:08:43.405Z,99.90
2022-09-20T00:11:19.126Z,99.90
2022-09-20T00:13:48.388Z,99.90
2022-09-20T00:16:18.874Z,99.90
2022-09-20T00:18:49.778Z,99.90
2022-09-20T00:21:22.295Z,99.90
2022-09-20T00:23:49.863Z,99.90
2022-09-20T00:26:17.423Z,99.90
2022-09-20T00:28:44.645Z,99.90
2022-09-20T00:31:11.923Z,99.90
2022-09-20T00:33:57.306Z,99.90
2022-09-20T00:36:23.982Z,99.90
2022-09-20T00:38:55.390Z,99.90
2022-09-20T00:41:21.997Z,99.90
2022-09-20T00:43:48.562Z,99.90
2022-09-20T00:46:35.977Z,99.90
2022-09-20T00:49:13.508Z,99.90
2022-09-20T00:51:43.040Z,99.90
2022-09-20T00:54:15.726Z,99.90
2022-09-20T00:56:44.953Z,99.90
2022-09-20T00:59:48.219Z,99.90
2022-09-20T01:02:21.569Z,99.90
2022-09-20T01:04:49.069Z,99.90
2022-09-20T01:07:18.006Z,99.90
2022-09-20T01:09:45.076Z,99.90
2022-09-20T01:12:17.812Z,99.90
2022-09-20T01:14:47.459Z,99.90
2022-09-20T01:17:15.062Z,99.90
2022-09-20T01:20:00.079Z,99.90
2022-09-20T01:22:36.142Z,99.90
2022-09-20T01:25:30.554Z,99.90
2022-09-20T01:27:57.357Z,99.90
2022-09-20T01:30:39.327Z,99.90
2022-09-20T01:33:28.448Z,99.90
2022-09-20T01:35:59.322Z,99.90
2022-09-20T01:38:34.874Z,99.90
2022-09-20T01:41:05.905Z,99.90
2022-09-20T01:43:48.409Z,99.90
2022-09-20T01:46:31.578Z,99.90
2022-09-20T01:49:29.386Z,99.90
2022-09-20T01:52:17.310Z,99.90
2022-09-20T01:55:02.510Z,99.90
2022-09-20T01:57:56.680Z,99.90
2022-09-20T02:00:31.764Z,99.90
2022-09-20T02:03:16.533Z,99.90
2022-09-20T02:06:07.637Z,99.90
2022-09-20T02:09:18.341Z,99.90
2022-09-20T02:11:59.170Z,99.90
2022-09-20T02:15:00.307Z,99.90
2022-09-20T02:17:36.703Z,99.90
2022-09-20T02:20:09.168Z,99.90
2022-09-20T02:23:13.457Z,99.90
2022-09-20T02:26:02.511Z,99.90
2022-09-20T02:29:13.905Z,99.90
2022-09-20T02:31:55.717Z,99.90
2022-09-20T02:34:55.301Z,99.90
2022-09-20T02:37:57.102Z,99.90
2022-09-20T02:40:47.856Z,99.90
2022-09-20T02:43:33.930Z,99.90
2022-09-20T02:46:03.223Z,99.90
2022-09-20T02:49:03.991Z,99.90
2022-09-20T02:51:49.468Z,99.90
2022-09-20T02:54:21.869Z,99.90
2022-09-20T02:57:23.852Z,99.90
2022-09-20T03:00:01.256Z,99.90
2022-09-20T03:02:39.616Z,99.90
2022-09-20T03:05:14.590Z,99.90
2022-09-20T03:08:18.603Z,99.90
2022-09-20T03:11:22.452Z,99.90
2022-09-20T03:14:01.694Z,99.90
2022-09-20T03:17:02.469Z,99.90
2022-09-20T03:19:47.551Z,99.90
2022-09-20T03:22:38.610Z,99.90
2022-09-20T03:25:05.170Z,99.90
2022-09-20T03:27:43.660Z,99.90
2022-09-20T03:30:32.388Z,99.90
2022-09-20T03:33:02.039Z,99.90
2022-09-20T03:35:56.353Z,99.90
2022-09-20T03:38:25.662Z,99.90
2022-09-20T03:41:10.773Z,99.90
2022-09-20T03:44:01.449Z,99.90
2022-09-20T03:47:09.269Z,99.90
2022-09-20T03:49:58.375Z,99.90
2022-09-20T03:52:46.922Z,99.90
2022-09-20T03:55:39.686Z,99.90
2022-09-20T03:58:41.211Z,99.90
2022-09-20T04:01:32.613Z,99.90
2022-09-20T04:04:23.761Z,99.90
2022-09-20T04:07:29.502Z,99.90
2022-09-20T04:10:20.931Z,99.90
2022-09-20T04:13:09.020Z,99.90
2022-09-20T04:16:02.325Z,99.90
2022-09-20T04:18:45.493Z,99.90
2022-09-20T04:21:45.940Z,99.90
2022-09-20T04:24:23.892Z,99.90
2022-09-20T04:26:56.746Z,99.90
2022-09-20T04:29:29.494Z,99.90
2022-09-20T04:32:11.667Z,99.90
2022-09-20T04:35:10.005Z,99.90
2022-09-20T04:37:38.373Z,99.90
2022-09-20T04:40:27.513Z,99.90
2022-09-20T04:43:15.249Z,99.90
2022-09-20T04:46:07.753Z,99.90
2022-09-20T04:48:57.655Z,99.90
2022-09-20T04:51:30.144Z,99.90
2022-09-20T04:54:07.577Z,99.90
2022-09-20T04:56:55.894Z,99.90
2022-09-20T04:59:58.956Z,99.90
2022-09-20T05:02:54.534Z,99.90
2022-09-20T05:05:26.931Z,99.90
2022-09-20T05:08:16.282Z,99.90
2022-09-20T05:11:01.773Z,99.90
2022-09-20T05:13:44.824Z,99.90
2022-09-20T05:16:23.150Z,99.90
2022-09-20T05:19:16.669Z,99.90
2022-09-20T05:22:01.397Z,99.90
2022-09-20T05:24:53.969Z,99.90
2022-09-20T05:27:48.595Z,99.90
2022-09-20T05:30:29.925Z,99.90
2022-09-20T05:33:12.732Z,99.90
2022-09-20T05:35:48.967Z,99.90
2022-09-20T05:38:40.684Z,99.90
2022-09-20T05:41:41.005Z,99.90
2022-09-20T05:44:40.154Z,99.90
2022-09-20T05:47:24.502Z,99.90
2022-09-20T05:49:56.930Z,99.90
2022-09-20T05:52:41.247Z,99.90
2022-09-20T05:55:31.860Z,99.90
2022-09-20T05:58:19.476Z,99.90
2022-09-20T06:00:53.154Z,99.90
2022-09-20T06:03:37.189Z,99.90
2022-09-20T06:06:21.626Z,99.90
2022-09-20T06:09:23.923Z,99.90
2022-09-20T06:12:12.157Z,99.90
2022-09-20T06:15:03.197Z,99.90
2022-09-20T06:17:40.161Z,99.90
2022-09-20T06:20:20.973Z,99.90
2022-09-20T06:22:52.254Z,99.90
2022-09-20T06:25:31.013Z,99.90
2022-09-20T06:28:19.188Z,99.90
2022-09-20T06:30:49.663Z,99.90
2022-09-20T06:33:19.051Z,99.90
2022-09-20T06:36:25.488Z,99.90
2022-09-20T06:39:44.711Z,99.90
2022-09-20T06:42:11.472Z,99.90
2022-09-20T06:44:43.151Z,99.90
2022-09-20T06:47:15.026Z,99.90
2022-09-20T06:49:42.416Z,99.90
2022-09-20T06:52:14.762Z,99.90
2022-09-20T06:54:45.756Z,99.90
2022-09-20T06:57:16.160Z,99.90
2022-09-20T06:59:42.797Z,99.90
2022-09-20T07:02:09.759Z,99.90
2022-09-20T07:04:36.538Z,99.90
2022-09-20T07:07:09.111Z,99.90
2022-09-20T07:09:36.150Z,99.90
2022-09-20T07:12:03.094Z,99.90
2022-09-20T07:14:29.725Z,99.90
2022-09-20T07:16:56.315Z,99.90
2022-09-20T07:19:23.287Z,99.90
2022-09-20T07:21:49.884Z,99.90
2022-09-20T07:24:16.456Z,99.90
2022-09-20T07:27:04.948Z,99.90
2022-09-20T07:29:31.739Z,99.90
2022-09-20T07:31:58.679Z,99.90
2022-09-20T07:34:25.519Z,99.90
2022-09-20T07:36:52.264Z,99.90
2022-09-20T07:39:18.989Z,99.90
2022-09-20T07:41:48.311Z,99.90
2022-09-20T07:44:21.933Z,99.90
2022-09-20T07:46:49.544Z,99.90
2022-09-20T07:49:16.397Z,99.90
2022-09-20T07:51:43.301Z,99.90
2022-09-20T07:54:09.996Z,99.90
2022-09-20T07:56:36.656Z,99.90
2022-09-20T07:59:03.486Z,99.90
2022-09-20T08:01:30.190Z,99.90
2022-09-20T08:03:57.152Z,99.90
2022-09-20T08:06:24.631Z,99.90
2022-09-20T08:08:51.649Z,99.90
2022-09-20T08:11:27.940Z,99.90
2022-09-20T08:14:06.052Z,99.90
2022-09-20T08:16:39.297Z,99.90
2022-09-20T08:19:06.308Z,99.90
2022-09-20T08:21:37.868Z,99.90
2022-09-20T08:24:04.636Z,99.90
2022-09-20T08:26:31.610Z,99.90
2022-09-20T08:28:59.740Z,99.90
2022-09-20T08:31:31.319Z,99.90
2022-09-20T08:33:59.147Z,99.90
2022-09-20T08:36:26.327Z,99.90
2022-09-20T08:41:48.493Z,99.90
2022-09-20T08:44:36.781Z,99.90
2022-09-20T08:47:22.250Z,99.90
2022-09-20T08:49:56.579Z,99.90
2022-09-20T08:52:37.526Z,99.90
2022-09-20T08:55:22.576Z,99.90
2022-09-20T08:57:55.240Z,99.90
2022-09-20T09:00:29.499Z,99.90
2022-09-20T09:02:59.006Z,99.90
2022-09-20T09:05:50.204Z,99.90
2022-09-20T09:08:24.199Z,99.90
2022-09-20T09:11:09.451Z,99.90
2022-09-20T09:13:53.572Z,99.90
2022-09-20T09:16:28.654Z,99.90
2022-09-20T09:19:33.221Z,99.90
2022-09-20T09:22:05.374Z,99.90
2022-09-20T09:24:32.156Z,99.90
2022-09-20T09:27:19.607Z,99.90
2022-09-20T09:29:56.232Z,99.90
2022-09-20T09:32:28.393Z,99.90
2022-09-20T09:34:56.055Z,99.90
2022-09-20T09:37:28.595Z,99.90
2022-09-20T09:40:17.202Z,99.90
2022-09-20T09:43:02.583Z,99.90
2022-09-20T09:45:38.604Z,99.90
2022-09-20T09:48:30.519Z,99.90
2022-09-20T09:51:15.527Z,99.90
2022-09-20T09:53:43.378Z,99.90
2022-09-20T09:56:28.554Z,99.90
2022-09-20T09:59:17.176Z,99.90
2022-09-20T10:02:29.473Z,99.90
2022-09-20T10:05:22.338Z,99.90
2022-09-20T10:08:07.252Z,99.90
2022-09-20T10:10:41.361Z,99.90
2022-09-20T10:13:33.487Z,99.90
2022-09-20T10:16:32.101Z,99.90
2022-09-20T10:19:33.658Z,99.90
2022-09-20T10:22:18.432Z,99.90
2022-09-20T10:25:14.306Z,96.00
2022-09-20T10:28:14.244Z,95.80
2022-09-20T10:31:12.797Z,96.00
2022-09-20T10:34:02.209Z,96.50
2022-09-20T10:36:52.804Z,97.90
2022-09-20T10:39:41.080Z,97.30
2022-09-20T10:42:59.614Z,96.20
2022-09-20T10:49:23.575Z,94.40
2022-09-20T10:51:55.599Z,95.50
2022-09-20T10:54:46.174Z,94.10
2022-09-20T10:57:26.004Z,96.40
2022-09-20T11:00:04.262Z,97.20
2022-09-20T11:02:53.409Z,98.90
2022-09-20T11:05:38.269Z,99.90
2022-09-20T11:08:22.844Z,99.90
2022-09-20T11:10:58.137Z,99.90
2022-09-20T11:13:39.680Z,99.90
2022-09-20T11:16:14.267Z,99.90
2022-09-20T11:18:58.804Z,99.90
2022-09-20T11:21:28.156Z,99.90
2022-09-20T11:24:29.722Z,99.90
2022-09-20T11:27:04.225Z,99.90
2022-09-20T11:29:36.604Z,99.90
2022-09-20T11:32:22.576Z,99.90
2022-09-20T11:34:56.103Z,99.90
2022-09-20T11:37:30.105Z,99.90
2022-09-20T11:40:01.618Z,99.90
2022-09-20T11:42:32.898Z,99.90
2022-09-20T11:44:59.518Z,99.90
2022-09-20T11:47:54.859Z,99.90
2022-09-20T11:50:58.344Z,99.90
2022-09-20T11:53:50.102Z,99.90
2022-09-20T11:56:32.251Z,99.90
2022-09-20T11:59:03.677Z,99.90
2022-09-20T12:01:40.528Z,99.90
2022-09-20T12:04:34.527Z,99.90
2022-09-20T12:07:18.716Z,99.90
2022-09-20T12:10:02.630Z,99.90
2022-09-20T12:12:46.925Z,99.90
2022-09-20T12:15:25.379Z,99.90
2022-09-20T12:17:52.327Z,99.90
2022-09-20T12:20:34.669Z,99.90
2022-09-20T12:23:41.397Z,99.90
2022-09-20T12:26:20.724Z,99.90
2022-09-20T12:28:53.204Z,99.90
2022-09-20T12:31:23.015Z,99.90
2022-09-20T12:34:15.855Z,99.90
2022-09-20T12:36:43.430Z,99.90
2022-09-20T12:39:16.228Z,99.90
2022-09-20T12:42:04.573Z,99.90
2022-09-20T12:44:49.439Z,99.90
2022-09-20T12:47:22.426Z,99.70
2022-09-20T12:50:08.005Z,99.90
2022-09-20T12:53:02.439Z,99.90
2022-09-20T12:56:05.573Z,99.10
2022-09-20T12:58:53.511Z,99.20
2022-09-20T13:01:23.123Z,98.80
2022-09-20T13:03:50.631Z,98.90
2022-09-20T13:06:20.378Z,98.90
2022-09-20T13:08:52.635Z,98.10
2022-09-20T13:11:24.088Z,98.30
2022-09-20T13:13:58.963Z,98.70
2022-09-20T13:16:34.083Z,98.50
2022-09-20T13:19:06.790Z,98.90
2022-09-20T13:21:38.142Z,98.70
2022-09-20T13:24:07.262Z,99.20
2022-09-20T13:26:41.360Z,99.40
2022-09-20T13:29:18.910Z,99.60
2022-09-20T13:31:45.535Z,99.90
2022-09-20T13:34:23.746Z,99.70
2022-09-20T13:36:56.361Z,99.80
2022-09-20T13:39:30.212Z,99.80
2022-09-20T13:42:02.378Z,99.50
2022-09-20T13:44:34.258Z,99.10
2022-09-20T13:47:01.489Z,98.80
2022-09-20T13:49:32.069Z,98.80
2022-09-20T13:51:59.000Z,99.20
2022-09-20T13:54:31.519Z,98.40
2022-09-20T13:57:02.114Z,98.40
2022-09-20T13:59:34.057Z,98.20
2022-09-20T14:02:01.298Z,97.80
2022-09-20T14:04:29.670Z,97.90
2022-09-20T14:06:58.917Z,97.70
2022-09-20T14:09:33.871Z,97.90
2022-09-20T14:12:03.031Z,97.80
2022-09-20T14:14:31.277Z,98.00
2022-09-20T14:17:00.671Z,98.20
2022-09-20T14:19:37.042Z,98.30
2022-09-20T14:22:04.655Z,98.10
2022-09-20T14:24:37.056Z,98.10
2022-09-20T14:27:21.354Z,98.10
2022-09-20T14:29:50.442Z,97.80
2022-09-20T14:32:17.001Z,98.40
2022-09-20T14:34:55.976Z,98.30
2022-09-20T14:37:24.415Z,98.00
2022-09-20T14:39:56.575Z,98.00
2022-09-20T14:42:35.523Z,97.70
2022-09-20T14:45:04.491Z,97.70
2022-09-20T14:47:40.131Z,98.10
2022-09-20T14:50:28.026Z,97.90
2022-09-20T14:53:02.415Z,97.40
2022-09-20T14:55:36.955Z,97.90
2022-09-20T14:58:14.163Z,97.90
2022-09-20T15:01:15.373Z,98.10
2022-09-20T15:03:42.669Z,98.20
2022-09-20T15:06:13.462Z,98.40
2022-09-20T15:08:45.429Z,98.30
2022-09-20T15:11:14.721Z,98.70
2022-09-20T15:13:41.681Z,98.80
2022-09-20T15:16:08.926Z,99.10
2022-09-20T15:18:45.062Z,99.40
2022-09-20T15:21:11.964Z,99.30
2022-09-20T15:23:39.945Z,99.80
2022-09-20T15:26:07.493Z,99.90
2022-09-20T15:28:34.629Z,99.90
2022-09-20T15:31:01.248Z,99.90
2022-09-20T15:33:30.900Z,99.90
2022-09-20T15:35:57.649Z,99.90
2022-09-20T15:38:26.727Z,99.90
2022-09-20T15:40:53.896Z,99.90
2022-09-20T15:43:24.181Z,99.90
2022-09-20T15:46:02.462Z,99.90
2022-09-20T15:48:30.434Z,99.90
2022-09-20T15:51:11.384Z,99.90
2022-09-20T15:53:45.924Z,99.90
2022-09-20T15:56:40.180Z,99.90
2022-09-20T15:59:08.933Z,99.90
2022-09-20T16:01:47.691Z,99.90
2022-09-20T16:04:19.907Z,99.90
2022-09-20T16:06:49.361Z,99.90
2022-09-20T16:09:16.333Z,99.90
2022-09-20T16:11:42.928Z,99.90
2022-09-20T16:14:09.663Z,99.90
2022-09-20T16:16:40.373Z,99.90
2022-09-20T16:19:20.460Z,99.90
2022-09-20T16:21:53.729Z,99.90
2022-09-20T16:24:30.933Z,99.90
2022-09-20T16:26:58.621Z,99.90
2022-09-20T16:29:25.902Z,99.90
2022-09-20T16:31:54.240Z,99.90
2022-09-20T16:34:29.521Z,99.90
2022-09-20T16:37:10.279Z,99.90
2022-09-20T16:39:37.238Z,99.90
2022-09-20T16:42:06.477Z,99.90
2022-09-20T16:44:37.289Z,99.90
2022-09-20T16:49:54.205Z,99.90
2022-09-20T16:52:21.205Z,99.90
2022-09-20T16:54:47.798Z,99.90
2022-09-20T16:57:14.449Z,99.90
2022-09-20T16:59:41.202Z,99.90
2022-09-20T17:02:11.869Z,99.90
2022-09-20T17:04:38.538Z,99.90
2022-09-20T17:07:05.282Z,99.90
2022-09-20T17:09:32.065Z,99.90
2022-09-20T17:11:59.267Z,99.90
2022-09-20T17:14:25.903Z,99.90
2022-09-20T17:16:52.557Z,99.90
2022-09-20T17:19:20.465Z,99.90
2022-09-20T17:21:50.237Z,99.90
2022-09-20T17:24:21.651Z,99.90
2022-09-20T17:26:48.782Z,99.90
2022-09-20T17:29:17.377Z,99.90
2022-09-20T17:31:49.997Z,99.90
2022-09-20T17:34:21.424Z,99.90
2022-09-20T17:36:49.061Z,99.90
2022-09-20T17:39:16.446Z,99.90
2022-09-20T17:41:45.977Z,99.90
2022-09-20T17:44:13.270Z,99.90
2022-09-20T17:46:41.633Z,99.90
2022-09-20T17:49:13.303Z,99.90
2022-09-20T17:51:45.318Z,99.90
2022-09-20T17:54:13.924Z,99.90
2022-09-20T17:56:43.394Z,99.90
2022-09-20T17:59:11.788Z,99.90
2022-09-20T18:01:40.148Z,99.90
2022-09-20T18:04:08.712Z,99.90
2022-09-20T18:06:42.085Z,99.90
2022-09-20T18:09:11.363Z,99.90
2022-09-20T18:11:41.388Z,99.90
2022-09-20T18:14:15.976Z,99.90
2022-09-20T18:16:44.261Z,99.90
2022-09-20T18:19:11.469Z,99.90
2022-09-20T18:21:39.362Z,99.90
2022-09-20T18:24:07.795Z,99.90
2022-09-20T18:26:35.326Z,99.90
2022-09-20T18:29:06.509Z,99.90
2022-09-20T18:31:48.093Z,99.90
2022-09-20T18:34:20.269Z,99.90
2022-09-20T18:36:52.519Z,99.90
2022-09-20T18:39:23.052Z,99.90
2022-09-20T18:41:50.373Z,99.90
2022-09-20T18:44:18.435Z,99.90
2022-09-20T18:46:46.099Z,99.90
2022-09-20T18:49:14.997Z,99.90
2022-09-20T18:51:42.921Z,99.90
2022-09-20T18:54:10.701Z,99.90
2022-09-20T18:56:39.283Z,99.90
2022-09-20T18:59:12.954Z,99.90
2022-09-20T19:01:57.422Z,99.90
2022-09-20T19:04:49.210Z,99.90
2022-09-20T19:07:18.748Z,99.90
2022-09-20T19:10:03.216Z,99.90
2022-09-20T19:12:49.798Z,99.90
2022-09-20T19:15:19.811Z,99.90
2022-09-20T19:18:05.013Z,99.90
2022-09-20T19:20:37.191Z,99.90
2022-09-20T19:23:29.297Z,99.90
2022-09-20T19:26:08.629Z,99.90
2022-09-20T19:28:36.101Z,99.90
2022-09-20T19:31:03.106Z,99.90
2022-09-20T19:33:29.902Z,99.90
2022-09-20T19:35:59.030Z,99.90
2022-09-20T19:39:00.006Z,99.90
2022-09-20T19:41:52.790Z,99.90
2022-09-20T19:44:54.291Z,99.90
2022-09-20T19:47:36.702Z,99.90
2022-09-20T19:50:32.449Z,99.90
2022-09-20T19:53:04.078Z,99.90
2022-09-20T19:55:32.303Z,99.90
2022-09-20T19:57:59.365Z,99.90
2022-09-20T20:00:26.366Z,99.90
2022-09-20T20:02:53.976Z,99.90
2022-09-20T20:05:27.418Z,99.90
2022-09-20T20:08:25.262Z,99.90
2022-09-20T20:10:51.799Z,99.90
2022-09-20T20:14:03.060Z,99.90
2022-09-20T20:16:47.466Z,99.90
2022-09-20T20:19:35.126Z,99.90
2022-09-20T20:22:29.522Z,99.90
2022-09-20T20:24:57.373Z,99.90
2022-09-20T20:27:25.952Z,99.90
2022-09-20T20:29:52.529Z,99.90
2022-09-20T20:32:19.216Z,99.90
2022-09-20T20:34:46.826Z,99.90
2022-09-20T20:37:13.954Z,99.90
2022-09-20T20:39:40.546Z,99.90
2022-09-20T20:42:08.372Z,99.90
2022-09-20T20:44:35.042Z,99.90
2022-09-20T20:47:03.158Z,99.90
2022-09-20T20:49:30.157Z,99.90
2022-09-20T20:51:58.089Z,99.90
2022-09-20T20:54:25.034Z,99.90
2022-09-20T20:56:51.654Z,99.90
2022-09-20T20:59:18.288Z,99.90
2022-09-20T21:01:45.828Z,99.90
2022-09-20T21:04:13.478Z,99.90
2022-09-20T21:06:40.938Z,99.90
2022-09-20T21:09:09.516Z,99.90
2022-09-20T21:11:44.190Z,99.90
2022-09-20T21:14:12.514Z,99.90
2022-09-20T21:16:44.953Z,99.90
2022-09-20T21:19:14.941Z,99.90
2022-09-20T21:21:43.372Z,99.90
2022-09-20T21:24:12.393Z,99.90
2022-09-20T21:26:39.977Z,99.90
2022-09-20T21:29:15.104Z,99.90
2022-09-20T21:31:43.829Z,99.90
2022-09-20T21:34:12.388Z,99.90
2022-09-20T21:36:41.460Z,99.90
2022-09-20T21:39:08.771Z,99.90
2022-09-20T21:41:37.600Z,99.90
2022-09-20T21:44:06.437Z,99.90
2022-09-20T21:46:40.623Z,99.90
2022-09-20T21:49:12.356Z,99.90
2022-09-20T21:51:41.942Z,99.90
2022-09-20T21:54:09.270Z,99.90
2022-09-20T21:56:38.068Z,99.90
2022-09-20T21:59:06.142Z,99.90
2022-09-20T22:01:35.617Z,99.90
2022-09-20T22:04:07.616Z,99.90
2022-09-20T22:06:37.037Z,99.90
2022-09-20T22:09:07.044Z,99.90
2022-09-20T22:11:39.076Z,99.90
2022-09-20T22:14:06.703Z,99.90
2022-09-20T22:16:38.769Z,99.90
2022-09-20T22:19:06.947Z,99.90
2022-09-20T22:21:43.404Z,99.90
2022-09-20T22:24:11.941Z,99.90
2022-09-20T22:26:42.812Z,99.90
2022-09-20T22:29:10.136Z,99.90
2022-09-20T22:31:44.939Z,99.90
2022-09-20T22:34:14.685Z,99.90
2022-09-20T22:36:42.402Z,99.90
2022-09-20T22:39:10.835Z,99.90
2022-09-20T22:41:38.718Z,99.90
2022-09-20T22:44:06.194Z,99.90
2022-09-20T22:46:34.415Z,99.90
2022-09-20T22:49:01.516Z,99.90
2022-09-20T22:51:33.656Z,99.90
2022-09-20T22:54:04.558Z,99.90
2022-09-20T22:56:31.744Z,99.90
2022-09-20T22:59:05.342Z,99.90
2022-09-20T23:01:35.078Z,99.90
2022-09-20T23:04:07.808Z,99.90
2022-09-20T23:06:38.284Z,99.90
2022-09-20T23:09:09.093Z,99.90
2022-09-20T23:11:36.876Z,99.90
2022-09-20T23:14:05.992Z,99.90
2022-09-20T23:16:35.638Z,99.90
2022-09-20T23:19:03.450Z,99.90
2022-09-20T23:21:30.633Z,99.90
2022-09-20T23:23:59.575Z,99.90
2022-09-20T23:26:27.760Z,99.90
2022-09-20T23:28:57.478Z,99.90
2022-09-20T23:31:24.595Z,99.90
2022-09-20T23:33:54.165Z,99.90
2022-09-20T23:36:21.763Z,99.90
2022-09-20T23:38:49.218Z,99.90
2022-09-20T23:41:18.704Z,99.90
2022-09-20T23:43:45.795Z,99.90
2022-09-20T23:46:14.475Z,99.90
2022-09-20T23:48:41.937Z,99.90
2022-09-20T23:51:10.369Z,99.90
2022-09-20T23:53:37.392Z,99.90
2022-09-20T23:56:06.101Z,99.90
2022-09-20T23:58:33.689Z,99.90
